sensor_id;sensor_type;location;lat;lon;timestamp;P1;durP1;ratioP1;P2;durP2;ratioP2
63259;SDS011;49390;51.380;0.098;2022-11-30T00:01:35;60.42;;;20.17;;
63259;SDS011;49390;51.380;0.098;2022-11-30T00:04:04;59.83;;;19.35;;
63259;SDS011;49390;51.380;0.098;2022-11-30T00:06:32;55.80;;;19.98;;
63259;SDS011;49390;51.380;0.098;2022-11-30T00:09:00;59.28;;;20.38;;
63259;SDS011;49390;51.380;0.098;2022-11-30T00:11:28;55.28;;;18.88;;
63259;SDS011;49390;51.380;0.098;2022-11-30T00:13:58;53.90;;;19.13;;
63259;SDS011;49390;51.380;0.098;2022-11-30T00:16:27;65.97;;;19.27;;
63259;SDS011;49390;51.380;0.098;2022-11-30T00:18:55;59.65;;;18.80;;
63259;SDS011;49390;51.380;0.098;2022-11-30T00:21:24;51.42;;;17.50;;
63259;SDS011;49390;51.380;0.098;2022-11-30T00:23:52;52.58;;;17.38;;
63259;SDS011;49390;51.380;0.098;2022-11-30T00:26:23;52.63;;;18.27;;
63259;SDS011;49390;51.380;0.098;2022-11-30T00:28:52;55.20;;;18.92;;
63259;SDS011;49390;51.380;0.098;2022-11-30T00:31:21;50.92;;;17.67;;
63259;SDS011;49390;51.380;0.098;2022-11-30T00:33:49;45.53;;;16.58;;
63259;SDS011;49390;51.380;0.098;2022-11-30T00:36:19;51.88;;;17.52;;
63259;SDS011;49390;51.380;0.098;2022-11-30T00:38:51;53.65;;;18.05;;
63259;SDS011;49390;51.380;0.098;2022-11-30T00:41:20;47.10;;;18.92;;
63259;SDS011;49390;51.380;0.098;2022-11-30T00:43:50;58.97;;;19.20;;
63259;SDS011;49390;51.380;0.098;2022-11-30T00:46:19;52.70;;;17.80;;
63259;SDS011;49390;51.380;0.098;2022-11-30T00:48:48;53.53;;;17.60;;
63259;SDS011;49390;51.380;0.098;2022-11-30T00:51:17;47.90;;;17.17;;
63259;SDS011;49390;51.380;0.098;2022-11-30T00:53:46;53.00;;;17.52;;
63259;SDS011;49390;51.380;0.098;2022-11-30T00:56:15;55.90;;;19.73;;
63259;SDS011;49390;51.380;0.098;2022-11-30T00:58:43;55.75;;;18.70;;
63259;SDS011;49390;51.380;0.098;2022-11-30T01:01:11;46.53;;;17.17;;
63259;SDS011;49390;51.380;0.098;2022-11-30T01:03:39;55.35;;;18.55;;
63259;SDS011;49390;51.380;0.098;2022-11-30T01:06:07;57.47;;;19.95;;
63259;SDS011;49390;51.380;0.098;2022-11-30T01:08:37;54.72;;;19.33;;
63259;SDS011;49390;51.380;0.098;2022-11-30T01:11:11;49.45;;;18.08;;
63259;SDS011;49390;51.380;0.098;2022-11-30T01:13:43;47.78;;;18.73;;
63259;SDS011;49390;51.380;0.098;2022-11-30T01:16:12;55.75;;;19.92;;
63259;SDS011;49390;51.380;0.098;2022-11-30T01:18:43;51.25;;;19.60;;
63259;SDS011;49390;51.380;0.098;2022-11-30T01:21:12;60.13;;;21.77;;
63259;SDS011;49390;51.380;0.098;2022-11-30T01:23:44;59.42;;;19.02;;
63259;SDS011;49390;51.380;0.098;2022-11-30T01:26:12;58.00;;;20.15;;
63259;SDS011;49390;51.380;0.098;2022-11-30T01:28:44;54.05;;;20.33;;
63259;SDS011;49390;51.380;0.098;2022-11-30T01:31:15;52.97;;;19.58;;
63259;SDS011;49390;51.380;0.098;2022-11-30T01:33:52;54.80;;;19.38;;
63259;SDS011;49390;51.380;0.098;2022-11-30T01:36:22;50.28;;;17.80;;
63259;SDS011;49390;51.380;0.098;2022-11-30T01:38:53;56.67;;;20.08;;
63259;SDS011;49390;51.380;0.098;2022-11-30T01:41:24;49.15;;;18.73;;
63259;SDS011;49390;51.380;0.098;2022-11-30T01:44:45;64.78;;;18.75;;
63259;SDS011;49390;51.380;0.098;2022-11-30T01:47:02;50.28;;;18.45;;
63259;SDS011;49390;51.380;0.098;2022-11-30T01:49:35;49.55;;;17.77;;
63259;SDS011;49390;51.380;0.098;2022-11-30T01:52:08;53.53;;;18.67;;
63259;SDS011;49390;51.380;0.098;2022-11-30T01:54:51;45.63;;;16.83;;
63259;SDS011;49390;51.380;0.098;2022-11-30T01:57:36;48.75;;;17.38;;
63259;SDS011;49390;51.380;0.098;2022-11-30T02:00:38;50.20;;;16.77;;
63259;SDS011;49390;51.380;0.098;2022-11-30T02:03:31;44.92;;;16.23;;
63259;SDS011;49390;51.380;0.098;2022-11-30T02:06:05;47.20;;;16.33;;
63259;SDS011;49390;51.380;0.098;2022-11-30T02:08:35;47.00;;;16.33;;
63259;SDS011;49390;51.380;0.098;2022-11-30T02:11:08;45.58;;;15.95;;
63259;SDS011;49390;51.380;0.098;2022-11-30T02:14:01;42.95;;;16.20;;
63259;SDS011;49390;51.380;0.098;2022-11-30T02:16:50;44.60;;;16.20;;
63259;SDS011;49390;51.380;0.098;2022-11-30T02:32:58;45.33;;;16.08;;
63259;SDS011;49390;51.380;0.098;2022-11-30T02:36:05;46.05;;;16.13;;
63259;SDS011;49390;51.380;0.098;2022-11-30T02:40:23;45.90;;;15.73;;
63259;SDS011;49390;51.380;0.098;2022-11-30T02:52:49;46.85;;;15.02;;
63259;SDS011;49390;51.380;0.098;2022-11-30T02:56:02;42.25;;;14.50;;
63259;SDS011;49390;51.380;0.098;2022-11-30T02:58:53;40.55;;;13.23;;
63259;SDS011;49390;51.380;0.098;2022-11-30T03:01:26;40.25;;;13.50;;
63259;SDS011;49390;51.380;0.098;2022-11-30T03:09:05;42.15;;;14.52;;
63259;SDS011;49390;51.380;0.098;2022-11-30T03:11:43;47.55;;;16.13;;
63259;SDS011;49390;51.380;0.098;2022-11-30T03:14:14;38.90;;;14.18;;
63259;SDS011;49390;51.380;0.098;2022-11-30T03:16:45;44.58;;;14.75;;
63259;SDS011;49390;51.380;0.098;2022-11-30T03:19:15;36.75;;;13.05;;
63259;SDS011;49390;51.380;0.098;2022-11-30T03:21:44;37.40;;;14.40;;
63259;SDS011;49390;51.380;0.098;2022-11-30T03:24:12;42.55;;;15.10;;
63259;SDS011;49390;51.380;0.098;2022-11-30T03:26:42;40.85;;;13.63;;
63259;SDS011;49390;51.380;0.098;2022-11-30T03:29:11;41.42;;;15.77;;
63259;SDS011;49390;51.380;0.098;2022-11-30T03:31:39;42.72;;;14.32;;
63259;SDS011;49390;51.380;0.098;2022-11-30T03:34:07;39.58;;;14.13;;
63259;SDS011;49390;51.380;0.098;2022-11-30T03:36:36;40.92;;;15.13;;
63259;SDS011;49390;51.380;0.098;2022-11-30T03:39:04;48.40;;;16.98;;
63259;SDS011;49390;51.380;0.098;2022-11-30T03:41:32;49.30;;;16.42;;
63259;SDS011;49390;51.380;0.098;2022-11-30T03:44:00;51.03;;;16.63;;
63259;SDS011;49390;51.380;0.098;2022-11-30T03:46:29;43.40;;;15.07;;
63259;SDS011;49390;51.380;0.098;2022-11-30T03:48:57;45.25;;;15.70;;
63259;SDS011;49390;51.380;0.098;2022-11-30T03:51:26;46.70;;;17.30;;
63259;SDS011;49390;51.380;0.098;2022-11-30T03:53:54;48.22;;;17.05;;
63259;SDS011;49390;51.380;0.098;2022-11-30T03:56:22;42.88;;;16.08;;
63259;SDS011;49390;51.380;0.098;2022-11-30T03:58:50;50.72;;;16.35;;
63259;SDS011;49390;51.380;0.098;2022-11-30T04:01:19;50.00;;;15.88;;
63259;SDS011;49390;51.380;0.098;2022-11-30T04:03:52;51.20;;;16.73;;
63259;SDS011;49390;51.380;0.098;2022-11-30T04:06:20;42.28;;;15.68;;
63259;SDS011;49390;51.380;0.098;2022-11-30T04:08:49;50.05;;;16.20;;
63259;SDS011;49390;51.380;0.098;2022-11-30T04:11:17;44.17;;;15.40;;
63259;SDS011;49390;51.380;0.098;2022-11-30T04:13:48;40.47;;;14.60;;
63259;SDS011;49390;51.380;0.098;2022-11-30T04:16:19;40.42;;;16.00;;
63259;SDS011;49390;51.380;0.098;2022-11-30T04:18:47;44.22;;;16.83;;
63259;SDS011;49390;51.380;0.098;2022-11-30T04:21:21;43.47;;;16.02;;
63259;SDS011;49390;51.380;0.098;2022-11-30T04:23:50;43.25;;;14.55;;
63259;SDS011;49390;51.380;0.098;2022-11-30T04:26:18;43.85;;;15.48;;
63259;SDS011;49390;51.380;0.098;2022-11-30T04:28:47;41.22;;;14.65;;
63259;SDS011;49390;51.380;0.098;2022-11-30T04:31:15;48.28;;;16.75;;
63259;SDS011;49390;51.380;0.098;2022-11-30T04:33:43;43.95;;;14.48;;
63259;SDS011;49390;51.380;0.098;2022-11-30T04:36:15;44.35;;;15.90;;
63259;SDS011;49390;51.380;0.098;2022-11-30T04:38:46;43.25;;;15.88;;
63259;SDS011;49390;51.380;0.098;2022-11-30T04:41:26;46.40;;;15.18;;
63259;SDS011;49390;51.380;0.098;2022-11-30T04:43:57;47.15;;;15.40;;
63259;SDS011;49390;51.380;0.098;2022-11-30T04:46:30;47.08;;;15.80;;
63259;SDS011;49390;51.380;0.098;2022-11-30T04:48:58;44.17;;;14.85;;
63259;SDS011;49390;51.380;0.098;2022-11-30T04:51:27;45.65;;;14.75;;
63259;SDS011;49390;51.380;0.098;2022-11-30T04:53:59;46.92;;;15.57;;
63259;SDS011;49390;51.380;0.098;2022-11-30T04:56:27;47.90;;;15.02;;
63259;SDS011;49390;51.380;0.098;2022-11-30T04:58:56;43.35;;;15.35;;
63259;SDS011;49390;51.380;0.098;2022-11-30T05:01:24;45.00;;;15.65;;
63259;SDS011;49390;51.380;0.098;2022-11-30T05:04:01;51.28;;;17.23;;
63259;SDS011;49390;51.380;0.098;2022-11-30T05:06:31;51.63;;;16.33;;
63259;SDS011;49390;51.380;0.098;2022-11-30T05:08:59;43.15;;;16.55;;
63259;SDS011;49390;51.380;0.098;2022-11-30T05:11:28;52.80;;;16.15;;
63259;SDS011;49390;51.380;0.098;2022-11-30T05:13:56;50.35;;;16.27;;
63259;SDS011;49390;51.380;0.098;2022-11-30T05:16:25;42.10;;;15.43;;
63259;SDS011;49390;51.380;0.098;2022-11-30T05:18:55;43.97;;;14.45;;
63259;SDS011;49390;51.380;0.098;2022-11-30T05:21:24;52.80;;;17.90;;
63259;SDS011;49390;51.380;0.098;2022-11-30T05:24:53;57.80;;;18.63;;
63259;SDS011;49390;51.380;0.098;2022-11-30T05:27:50;55.42;;;16.15;;
63259;SDS011;49390;51.380;0.098;2022-11-30T05:30:26;57.95;;;18.23;;
63259;SDS011;49390;51.380;0.098;2022-11-30T05:32:58;43.97;;;14.65;;
63259;SDS011;49390;51.380;0.098;2022-11-30T05:35:41;47.72;;;16.08;;
63259;SDS011;49390;51.380;0.098;2022-11-30T05:38:11;45.78;;;15.80;;
63259;SDS011;49390;51.380;0.098;2022-11-30T05:40:41;50.97;;;16.77;;
63259;SDS011;49390;51.380;0.098;2022-11-30T05:43:42;42.92;;;15.05;;
63259;SDS011;49390;51.380;0.098;2022-11-30T05:46:11;45.88;;;15.80;;
63259;SDS011;49390;51.380;0.098;2022-11-30T05:48:40;42.90;;;15.35;;
63259;SDS011;49390;51.380;0.098;2022-11-30T05:51:11;53.42;;;15.38;;
63259;SDS011;49390;51.380;0.098;2022-11-30T05:53:42;54.17;;;16.95;;
63259;SDS011;49390;51.380;0.098;2022-11-30T05:56:18;46.88;;;16.58;;
63259;SDS011;49390;51.380;0.098;2022-11-30T06:01:02;47.45;;;15.20;;
63259;SDS011;49390;51.380;0.098;2022-11-30T06:03:32;54.75;;;15.50;;
63259;SDS011;49390;51.380;0.098;2022-11-30T06:06:03;44.73;;;15.50;;
63259;SDS011;49390;51.380;0.098;2022-11-30T06:08:38;55.25;;;16.95;;
63259;SDS011;49390;51.380;0.098;2022-11-30T06:11:12;48.22;;;16.17;;
63259;SDS011;49390;51.380;0.098;2022-11-30T06:13:49;51.30;;;15.43;;
63259;SDS011;49390;51.380;0.098;2022-11-30T06:16:19;49.80;;;16.13;;
63259;SDS011;49390;51.380;0.098;2022-11-30T06:18:48;46.58;;;15.30;;
63259;SDS011;49390;51.380;0.098;2022-11-30T06:21:16;43.75;;;14.23;;
63259;SDS011;49390;51.380;0.098;2022-11-30T06:23:51;42.28;;;13.95;;
63259;SDS011;49390;51.380;0.098;2022-11-30T06:26:20;45.78;;;15.13;;
63259;SDS011;49390;51.380;0.098;2022-11-30T06:28:49;42.88;;;16.00;;
63259;SDS011;49390;51.380;0.098;2022-11-30T06:31:19;48.03;;;15.20;;
63259;SDS011;49390;51.380;0.098;2022-11-30T06:33:48;46.60;;;15.15;;
63259;SDS011;49390;51.380;0.098;2022-11-30T06:36:20;48.20;;;14.80;;
63259;SDS011;49390;51.380;0.098;2022-11-30T06:38:50;45.10;;;15.82;;
63259;SDS011;49390;51.380;0.098;2022-11-30T06:41:18;49.97;;;16.73;;
63259;SDS011;49390;51.380;0.098;2022-11-30T06:43:47;53.97;;;15.77;;
63259;SDS011;49390;51.380;0.098;2022-11-30T06:46:17;48.20;;;15.88;;
63259;SDS011;49390;51.380;0.098;2022-11-30T06:48:57;45.33;;;14.80;;
63259;SDS011;49390;51.380;0.098;2022-11-30T06:51:25;50.88;;;15.90;;
63259;SDS011;49390;51.380;0.098;2022-11-30T06:53:54;51.40;;;15.13;;
63259;SDS011;49390;51.380;0.098;2022-11-30T06:56:22;56.92;;;17.25;;
63259;SDS011;49390;51.380;0.098;2022-11-30T06:58:51;54.20;;;17.40;;
63259;SDS011;49390;51.380;0.098;2022-11-30T07:01:20;63.03;;;15.23;;
63259;SDS011;49390;51.380;0.098;2022-11-30T07:03:49;53.80;;;15.07;;
63259;SDS011;49390;51.380;0.098;2022-11-30T07:06:18;55.78;;;15.48;;
63259;SDS011;49390;51.380;0.098;2022-11-30T07:08:47;57.03;;;15.70;;
63259;SDS011;49390;51.380;0.098;2022-11-30T07:11:20;57.55;;;15.55;;
63259;SDS011;49390;51.380;0.098;2022-11-30T07:13:53;51.63;;;15.68;;
63259;SDS011;49390;51.380;0.098;2022-11-30T07:16:29;70.93;;;16.50;;
63259;SDS011;49390;51.380;0.098;2022-11-30T07:19:05;56.83;;;14.63;;
63259;SDS011;49390;51.380;0.098;2022-11-30T07:21:38;63.25;;;15.55;;
63259;SDS011;49390;51.380;0.098;2022-11-30T07:24:07;49.25;;;15.43;;
63259;SDS011;49390;51.380;0.098;2022-11-30T07:26:58;63.22;;;14.82;;
63259;SDS011;49390;51.380;0.098;2022-11-30T07:29:30;45.85;;;14.85;;
63259;SDS011;49390;51.380;0.098;2022-11-30T07:31:58;56.83;;;14.13;;
63259;SDS011;49390;51.380;0.098;2022-11-30T07:34:27;51.03;;;14.85;;
63259;SDS011;49390;51.380;0.098;2022-11-30T07:36:59;102.43;;;18.48;;
63259;SDS011;49390;51.380;0.098;2022-11-30T07:39:27;81.50;;;18.42;;
63259;SDS011;49390;51.380;0.098;2022-11-30T07:41:55;66.13;;;17.77;;
63259;SDS011;49390;51.380;0.098;2022-11-30T07:44:27;67.40;;;17.35;;
63259;SDS011;49390;51.380;0.098;2022-11-30T07:46:54;57.17;;;17.02;;
63259;SDS011;49390;51.380;0.098;2022-11-30T07:49:27;54.47;;;16.52;;
63259;SDS011;49390;51.380;0.098;2022-11-30T07:52:00;46.00;;;15.00;;
63259;SDS011;49390;51.380;0.098;2022-11-30T07:54:34;47.20;;;15.05;;
63259;SDS011;49390;51.380;0.098;2022-11-30T07:57:07;50.60;;;14.60;;
63259;SDS011;49390;51.380;0.098;2022-11-30T07:59:37;52.70;;;14.63;;
63259;SDS011;49390;51.380;0.098;2022-11-30T08:02:05;43.70;;;13.80;;
63259;SDS011;49390;51.380;0.098;2022-11-30T08:04:34;47.75;;;13.95;;
63259;SDS011;49390;51.380;0.098;2022-11-30T08:07:03;53.97;;;16.38;;
63259;SDS011;49390;51.380;0.098;2022-11-30T08:09:32;48.90;;;13.40;;
63259;SDS011;49390;51.380;0.098;2022-11-30T08:12:00;47.35;;;14.68;;
63259;SDS011;49390;51.380;0.098;2022-11-30T08:14:29;54.95;;;16.60;;
63259;SDS011;49390;51.380;0.098;2022-11-30T08:17:17;60.53;;;14.50;;
63259;SDS011;49390;51.380;0.098;2022-11-30T08:19:46;57.75;;;17.05;;
63259;SDS011;49390;51.380;0.098;2022-11-30T08:22:14;58.30;;;16.00;;
63259;SDS011;49390;51.380;0.098;2022-11-30T08:24:42;60.63;;;17.85;;
63259;SDS011;49390;51.380;0.098;2022-11-30T08:27:10;55.70;;;15.23;;
63259;SDS011;49390;51.380;0.098;2022-11-30T08:29:39;55.25;;;16.88;;
63259;SDS011;49390;51.380;0.098;2022-11-30T08:32:12;50.25;;;14.32;;
63259;SDS011;49390;51.380;0.098;2022-11-30T08:34:40;50.75;;;14.63;;
63259;SDS011;49390;51.380;0.098;2022-11-30T08:37:10;60.58;;;14.55;;
63259;SDS011;49390;51.380;0.098;2022-11-30T08:40:19;45.63;;;14.00;;
63259;SDS011;49390;51.380;0.098;2022-11-30T08:42:53;45.92;;;13.07;;
63259;SDS011;49390;51.380;0.098;2022-11-30T08:45:22;42.15;;;12.25;;
63259;SDS011;49390;51.380;0.098;2022-11-30T08:47:52;45.50;;;12.70;;
63259;SDS011;49390;51.380;0.098;2022-11-30T08:50:22;40.60;;;12.65;;
63259;SDS011;49390;51.380;0.098;2022-11-30T08:52:51;38.80;;;12.15;;
63259;SDS011;49390;51.380;0.098;2022-11-30T08:55:57;34.03;;;11.40;;
63259;SDS011;49390;51.380;0.098;2022-11-30T08:58:32;34.88;;;11.43;;
63259;SDS011;49390;51.380;0.098;2022-11-30T09:01:06;33.70;;;10.48;;
63259;SDS011;49390;51.380;0.098;2022-11-30T09:04:00;35.47;;;11.13;;
63259;SDS011;49390;51.380;0.098;2022-11-30T09:06:28;36.53;;;12.75;;
63259;SDS011;49390;51.380;0.098;2022-11-30T09:08:57;28.15;;;11.10;;
63259;SDS011;49390;51.380;0.098;2022-11-30T09:11:30;34.20;;;11.80;;
63259;SDS011;49390;51.380;0.098;2022-11-30T09:14:00;30.55;;;11.75;;
63259;SDS011;49390;51.380;0.098;2022-11-30T09:16:31;29.70;;;10.68;;
63259;SDS011;49390;51.380;0.098;2022-11-30T09:19:00;18.40;;;8.30;;
63259;SDS011;49390;51.380;0.098;2022-11-30T09:21:28;24.42;;;9.40;;
63259;SDS011;49390;51.380;0.098;2022-11-30T09:23:58;25.42;;;9.45;;
63259;SDS011;49390;51.380;0.098;2022-11-30T09:26:26;20.05;;;8.18;;
63259;SDS011;49390;51.380;0.098;2022-11-30T09:28:54;21.00;;;7.97;;
63259;SDS011;49390;51.380;0.098;2022-11-30T09:31:23;21.75;;;8.98;;
63259;SDS011;49390;51.380;0.098;2022-11-30T09:33:54;29.50;;;9.05;;
63259;SDS011;49390;51.380;0.098;2022-11-30T09:36:24;25.75;;;9.98;;
63259;SDS011;49390;51.380;0.098;2022-11-30T09:38:58;34.72;;;11.32;;
63259;SDS011;49390;51.380;0.098;2022-11-30T09:46:45;33.20;;;11.35;;
63259;SDS011;49390;51.380;0.098;2022-11-30T09:49:32;35.00;;;12.02;;
63259;SDS011;49390;51.380;0.098;2022-11-30T09:52:05;31.67;;;11.75;;
63259;SDS011;49390;51.380;0.098;2022-11-30T09:54:40;26.75;;;9.95;;
63259;SDS011;49390;51.380;0.098;2022-11-30T09:57:22;28.77;;;11.60;;
63259;SDS011;49390;51.380;0.098;2022-11-30T10:02:41;32.22;;;11.63;;
63259;SDS011;49390;51.380;0.098;2022-11-30T10:05:15;34.05;;;11.60;;
63259;SDS011;49390;51.380;0.098;2022-11-30T10:07:58;32.22;;;11.02;;
63259;SDS011;49390;51.380;0.098;2022-11-30T10:10:47;30.98;;;12.10;;
63259;SDS011;49390;51.380;0.098;2022-11-30T10:22:12;29.60;;;11.13;;
63259;SDS011;49390;51.380;0.098;2022-11-30T10:25:22;29.75;;;10.07;;
63259;SDS011;49390;51.380;0.098;2022-11-30T10:28:18;31.48;;;11.75;;
63259;SDS011;49390;51.380;0.098;2022-11-30T10:31:15;32.83;;;12.85;;
63259;SDS011;49390;51.380;0.098;2022-11-30T10:33:45;30.25;;;10.23;;
63259;SDS011;49390;51.380;0.098;2022-11-30T10:36:24;25.95;;;9.85;;
63259;SDS011;49390;51.380;0.098;2022-11-30T10:39:03;19.70;;;8.55;;
63259;SDS011;49390;51.380;0.098;2022-11-30T10:42:03;22.27;;;10.07;;
63259;SDS011;49390;51.380;0.098;2022-11-30T10:44:59;21.50;;;9.88;;
63259;SDS011;49390;51.380;0.098;2022-11-30T10:47:38;21.77;;;9.77;;
63259;SDS011;49390;51.380;0.098;2022-11-30T10:50:13;25.00;;;10.82;;
63259;SDS011;49390;51.380;0.098;2022-11-30T10:52:46;25.17;;;10.73;;
63259;SDS011;49390;51.380;0.098;2022-11-30T10:55:19;34.70;;;12.10;;
63259;SDS011;49390;51.380;0.098;2022-11-30T10:57:54;28.55;;;11.98;;
63259;SDS011;49390;51.380;0.098;2022-11-30T11:00:27;23.00;;;10.38;;
63259;SDS011;49390;51.380;0.098;2022-11-30T11:02:56;27.70;;;10.30;;
63259;SDS011;49390;51.380;0.098;2022-11-30T11:05:25;24.23;;;11.68;;
63259;SDS011;49390;51.380;0.098;2022-11-30T11:10:34;25.65;;;10.35;;
63259;SDS011;49390;51.380;0.098;2022-11-30T11:13:15;25.42;;;10.50;;
63259;SDS011;49390;51.380;0.098;2022-11-30T11:16:03;27.17;;;11.67;;
63259;SDS011;49390;51.380;0.098;2022-11-30T11:18:38;28.77;;;12.18;;
63259;SDS011;49390;51.380;0.098;2022-11-30T11:21:20;21.17;;;9.80;;
63259;SDS011;49390;51.380;0.098;2022-11-30T11:23:50;22.25;;;9.65;;
63259;SDS011;49390;51.380;0.098;2022-11-30T11:26:26;19.52;;;8.32;;
63259;SDS011;49390;51.380;0.098;2022-11-30T11:28:56;21.52;;;9.50;;
63259;SDS011;49390;51.380;0.098;2022-11-30T11:31:32;18.95;;;8.55;;
63259;SDS011;49390;51.380;0.098;2022-11-30T11:37:30;26.20;;;10.73;;
63259;SDS011;49390;51.380;0.098;2022-11-30T11:42:34;22.73;;;11.02;;
63259;SDS011;49390;51.380;0.098;2022-11-30T11:45:21;28.25;;;12.52;;
63259;SDS011;49390;51.380;0.098;2022-11-30T11:47:59;19.60;;;10.43;;
63259;SDS011;49390;51.380;0.098;2022-11-30T11:50:33;22.48;;;10.30;;
63259;SDS011;49390;51.380;0.098;2022-11-30T12:10:31;28.02;;;12.00;;
63259;SDS011;49390;51.380;0.098;2022-11-30T12:13:35;29.45;;;12.00;;
63259;SDS011;49390;51.380;0.098;2022-11-30T12:18:53;26.48;;;12.68;;
63259;SDS011;49390;51.380;0.098;2022-11-30T12:21:59;31.80;;;13.27;;
63259;SDS011;49390;51.380;0.098;2022-11-30T12:24:55;28.23;;;12.32;;
63259;SDS011;49390;51.380;0.098;2022-11-30T12:38:59;25.08;;;11.93;;
63259;SDS011;49390;51.380;0.098;2022-11-30T12:41:38;27.85;;;11.65;;
63259;SDS011;49390;51.380;0.098;2022-11-30T12:44:30;26.77;;;11.65;;
63259;SDS011;49390;51.380;0.098;2022-11-30T12:47:22;28.02;;;11.95;;
63259;SDS011;49390;51.380;0.098;2022-11-30T13:04:27;24.52;;;10.40;;
63259;SDS011;49390;51.380;0.098;2022-11-30T13:07:29;24.38;;;9.15;;
63259;SDS011;49390;51.380;0.098;2022-11-30T13:12:41;24.13;;;9.60;;
63259;SDS011;49390;51.380;0.098;2022-11-30T13:15:13;23.15;;;10.13;;
63259;SDS011;49390;51.380;0.098;2022-11-30T13:17:45;21.85;;;8.70;;
63259;SDS011;49390;51.380;0.098;2022-11-30T13:22:58;24.15;;;11.02;;
63259;SDS011;49390;51.380;0.098;2022-11-30T13:25:44;27.80;;;10.75;;
63259;SDS011;49390;51.380;0.098;2022-11-30T13:31:13;26.23;;;10.07;;
63259;SDS011;49390;51.380;0.098;2022-11-30T13:36:34;29.42;;;10.85;;
63259;SDS011;49390;51.380;0.098;2022-11-30T13:39:24;23.38;;;10.68;;
63259;SDS011;49390;51.380;0.098;2022-11-30T13:44:32;25.90;;;11.63;;
63259;SDS011;49390;51.380;0.098;2022-11-30T13:47:03;22.90;;;10.82;;
63259;SDS011;49390;51.380;0.098;2022-11-30T13:49:56;24.00;;;10.80;;
63259;SDS011;49390;51.380;0.098;2022-11-30T13:58:19;29.05;;;11.82;;
63259;SDS011;49390;51.380;0.098;2022-11-30T14:03:30;24.75;;;10.45;;
63259;SDS011;49390;51.380;0.098;2022-11-30T14:06:43;27.48;;;11.70;;
63259;SDS011;49390;51.380;0.098;2022-11-30T14:15:23;32.33;;;12.68;;
63259;SDS011;49390;51.380;0.098;2022-11-30T14:17:57;31.30;;;12.07;;
63259;SDS011;49390;51.380;0.098;2022-11-30T14:20:31;28.40;;;12.10;;
63259;SDS011;49390;51.380;0.098;2022-11-30T14:23:12;31.08;;;11.85;;
63259;SDS011;49390;51.380;0.098;2022-11-30T14:25:53;29.65;;;11.27;;
63259;SDS011;49390;51.380;0.098;2022-11-30T14:28:30;26.63;;;10.63;;
63259;SDS011;49390;51.380;0.098;2022-11-30T14:31:07;24.27;;;10.47;;
63259;SDS011;49390;51.380;0.098;2022-11-30T14:33:52;27.65;;;12.00;;
63259;SDS011;49390;51.380;0.098;2022-11-30T14:36:34;26.45;;;11.85;;
63259;SDS011;49390;51.380;0.098;2022-11-30T14:39:23;29.45;;;12.57;;
63259;SDS011;49390;51.380;0.098;2022-11-30T14:41:53;27.00;;;11.25;;
63259;SDS011;49390;51.380;0.098;2022-11-30T14:44:22;30.85;;;11.77;;
63259;SDS011;49390;51.380;0.098;2022-11-30T14:46:50;27.73;;;11.75;;
63259;SDS011;49390;51.380;0.098;2022-11-30T14:49:21;34.20;;;12.07;;
63259;SDS011;49390;51.380;0.098;2022-11-30T14:52:02;29.10;;;11.80;;
63259;SDS011;49390;51.380;0.098;2022-11-30T14:57:37;31.08;;;11.00;;
63259;SDS011;49390;51.380;0.098;2022-11-30T15:00:20;31.40;;;12.93;;
63259;SDS011;49390;51.380;0.098;2022-11-30T15:02:49;29.15;;;12.25;;
63259;SDS011;49390;51.380;0.098;2022-11-30T15:05:22;31.25;;;12.68;;
63259;SDS011;49390;51.380;0.098;2022-11-30T15:07:55;29.23;;;12.13;;
63259;SDS011;49390;51.380;0.098;2022-11-30T15:10:27;34.33;;;11.93;;
63259;SDS011;49390;51.380;0.098;2022-11-30T15:12:59;31.70;;;11.68;;
63259;SDS011;49390;51.380;0.098;2022-11-30T15:15:29;36.00;;;12.30;;
63259;SDS011;49390;51.380;0.098;2022-11-30T15:18:09;38.88;;;13.13;;
63259;SDS011;49390;51.380;0.098;2022-11-30T15:20:43;31.20;;;12.65;;
63259;SDS011;49390;51.380;0.098;2022-11-30T15:23:21;33.47;;;14.05;;
63259;SDS011;49390;51.380;0.098;2022-11-30T15:28:55;32.70;;;13.70;;
63259;SDS011;49390;51.380;0.098;2022-11-30T15:31:40;32.30;;;13.00;;
63259;SDS011;49390;51.380;0.098;2022-11-30T15:34:18;32.13;;;13.73;;
63259;SDS011;49390;51.380;0.098;2022-11-30T15:37:09;35.95;;;14.25;;
63259;SDS011;49390;51.380;0.098;2022-11-30T15:39:38;36.50;;;15.20;;
63259;SDS011;49390;51.380;0.098;2022-11-30T15:42:27;33.83;;;14.48;;
63259;SDS011;49390;51.380;0.098;2022-11-30T15:47:54;47.15;;;15.23;;
63259;SDS011;49390;51.380;0.098;2022-11-30T15:50:31;42.38;;;15.93;;
63259;SDS011;49390;51.380;0.098;2022-11-30T15:55:55;37.65;;;14.45;;
63259;SDS011;49390;51.380;0.098;2022-11-30T16:01:16;37.30;;;14.73;;
63259;SDS011;49390;51.380;0.098;2022-11-30T16:04:05;36.70;;;15.23;;
63259;SDS011;49390;51.380;0.098;2022-11-30T16:06:35;39.70;;;15.07;;
63259;SDS011;49390;51.380;0.098;2022-11-30T16:09:17;39.67;;;15.82;;
63259;SDS011;49390;51.380;0.098;2022-11-30T16:12:01;42.35;;;16.35;;
63259;SDS011;49390;51.380;0.098;2022-11-30T16:14:29;42.60;;;15.38;;
63259;SDS011;49390;51.380;0.098;2022-11-30T16:16:59;39.65;;;16.75;;
63259;SDS011;49390;51.380;0.098;2022-11-30T16:19:34;41.08;;;16.30;;
63259;SDS011;49390;51.380;0.098;2022-11-30T16:24:36;43.80;;;17.25;;
63259;SDS011;49390;51.380;0.098;2022-11-30T16:27:17;41.78;;;17.25;;
63259;SDS011;49390;51.380;0.098;2022-11-30T16:29:46;48.33;;;16.75;;
63259;SDS011;49390;51.380;0.098;2022-11-30T16:32:19;44.13;;;17.02;;
63259;SDS011;49390;51.380;0.098;2022-11-30T16:34:47;42.92;;;18.02;;
63259;SDS011;49390;51.380;0.098;2022-11-30T16:37:24;40.20;;;16.30;;
63259;SDS011;49390;51.380;0.098;2022-11-30T16:39:53;46.08;;;17.02;;
63259;SDS011;49390;51.380;0.098;2022-11-30T16:42:21;49.42;;;18.42;;
63259;SDS011;49390;51.380;0.098;2022-11-30T16:44:49;40.00;;;16.20;;
63259;SDS011;49390;51.380;0.098;2022-11-30T16:47:18;46.75;;;16.73;;
63259;SDS011;49390;51.380;0.098;2022-11-30T16:49:48;43.25;;;17.50;;
63259;SDS011;49390;51.380;0.098;2022-11-30T16:52:17;44.58;;;18.05;;
63259;SDS011;49390;51.380;0.098;2022-11-30T16:54:45;42.00;;;17.55;;
63259;SDS011;49390;51.380;0.098;2022-11-30T16:57:13;37.92;;;15.82;;
63259;SDS011;49390;51.380;0.098;2022-11-30T16:59:43;40.75;;;15.95;;
63259;SDS011;49390;51.380;0.098;2022-11-30T17:02:15;42.60;;;17.35;;
63259;SDS011;49390;51.380;0.098;2022-11-30T17:04:50;40.67;;;17.40;;
63259;SDS011;49390;51.380;0.098;2022-11-30T17:07:21;47.67;;;18.05;;
63259;SDS011;49390;51.380;0.098;2022-11-30T17:09:49;41.38;;;17.02;;
63259;SDS011;49390;51.380;0.098;2022-11-30T17:12:18;42.88;;;15.57;;
63259;SDS011;49390;51.380;0.098;2022-11-30T17:14:50;37.10;;;15.18;;
63259;SDS011;49390;51.380;0.098;2022-11-30T17:17:19;43.88;;;16.30;;
63259;SDS011;49390;51.380;0.098;2022-11-30T17:19:47;40.00;;;16.65;;
63259;SDS011;49390;51.380;0.098;2022-11-30T17:22:16;45.15;;;16.67;;
63259;SDS011;49390;51.380;0.098;2022-11-30T17:24:45;46.92;;;18.05;;
63259;SDS011;49390;51.380;0.098;2022-11-30T17:27:13;48.63;;;18.13;;
63259;SDS011;49390;51.380;0.098;2022-11-30T17:29:42;49.15;;;19.83;;
63259;SDS011;49390;51.380;0.098;2022-11-30T17:32:11;42.75;;;19.33;;
63259;SDS011;49390;51.380;0.098;2022-11-30T17:34:39;47.58;;;18.15;;